createdAt,value
2023-09-17T00:01:08.526Z,15.74
2023-09-17T00:17:33.392Z,15.60
2023-09-17T00:22:41.090Z,15.41
2023-09-17T00:27:49.297Z,15.34
2023-09-17T00:32:56.809Z,15.23
2023-09-17T00:38:06.742Z,15.10
2023-09-17T00:43:14.866Z,15.01
2023-09-17T00:48:23.422Z,14.96
2023-09-17T00:53:31.170Z,14.98
2023-09-17T00:58:40.193Z,15.02
2023-09-17T01:03:48.480Z,15.00
2023-09-17T01:08:56.252Z,14.93
2023-09-17T01:14:17.379Z,14.91
2023-09-17T01:19:29.717Z,14.90
2023-09-17T01:24:47.326Z,14.80
2023-09-17T01:29:56.459Z,14.64
2023-09-17T01:35:04.391Z,14.54
2023-09-17T01:40:15.474Z,14.59
2023-09-17T01:45:24.176Z,14.49
2023-09-17T01:50:32.962Z,14.34
2023-09-17T01:55:40.690Z,14.26
2023-09-17T02:00:49.376Z,14.21
2023-09-17T02:05:56.821Z,14.28
2023-09-17T02:11:06.088Z,14.39
2023-09-17T02:16:14.138Z,14.38
2023-09-17T02:21:22.107Z,14.33
2023-09-17T02:26:29.716Z,14.26
2023-09-17T02:31:37.325Z,14.27
2023-09-17T02:36:45.327Z,14.25
2023-09-17T02:41:52.426Z,14.21
2023-09-17T02:46:59.641Z,14.20
2023-09-17T02:52:07.975Z,14.20
2023-09-17T02:57:15.285Z,14.23
2023-09-17T03:02:22.539Z,14.20
2023-09-17T03:07:29.827Z,14.11
2023-09-17T03:12:37.619Z,13.99
2023-09-17T03:23:16.469Z,13.91
2023-09-17T03:28:24.054Z,13.93
2023-09-17T03:33:32.221Z,14.04
2023-09-17T03:38:39.679Z,14.08
2023-09-17T03:43:47.443Z,14.06
2023-09-17T03:48:54.860Z,14.04
2023-09-17T03:54:03.091Z,13.98
2023-09-17T03:59:10.586Z,13.89
2023-09-17T04:04:17.837Z,13.86
2023-09-17T04:09:25.573Z,13.88
2023-09-17T04:14:33.726Z,13.93
2023-09-17T04:19:41.095Z,13.96
2023-09-17T04:24:54.889Z,14.01
2023-09-17T04:30:08.514Z,13.98
2023-09-17T04:35:19.193Z,13.97
2023-09-17T04:40:29.563Z,14.02
2023-09-17T04:45:38.793Z,14.05
2023-09-17T04:50:48.174Z,14.09
2023-09-17T04:55:56.419Z,14.08
2023-09-17T05:01:05.177Z,14.12
2023-09-17T05:06:12.451Z,14.21
2023-09-17T05:11:19.769Z,14.30
2023-09-17T05:16:27.124Z,14.40
2023-09-17T05:21:34.590Z,14.47
2023-09-17T05:26:42.175Z,14.58
2023-09-17T05:31:50.029Z,14.70
2023-09-17T05:36:58.334Z,14.82
2023-09-17T05:42:06.284Z,14.96
2023-09-17T05:47:14.045Z,15.08
2023-09-17T05:52:22.675Z,15.20
2023-09-17T05:57:30.196Z,15.30
2023-09-17T06:02:37.726Z,15.40
2023-09-17T06:07:45.337Z,15.49
2023-09-17T06:12:52.638Z,15.59
2023-09-17T06:18:02.929Z,15.71
2023-09-17T06:23:10.479Z,15.82
2023-09-17T06:28:18.470Z,15.90
2023-09-17T06:33:25.890Z,15.86
2023-09-17T06:38:33.691Z,15.75
2023-09-17T06:43:41.072Z,15.70
2023-09-17T06:48:48.547Z,15.76
2023-09-17T06:53:55.985Z,15.87
2023-09-17T06:59:05.262Z,15.96
2023-09-17T07:04:13.602Z,15.99
2023-09-17T07:09:21.424Z,16.07
2023-09-17T07:14:29.262Z,16.22
2023-09-17T07:19:37.226Z,16.35
2023-09-17T07:24:44.833Z,16.45
2023-09-17T07:29:53.566Z,16.60
2023-09-17T07:35:02.952Z,16.72
2023-09-17T07:40:12.644Z,16.88
2023-09-17T07:45:20.214Z,17.02
2023-09-17T07:50:27.683Z,17.15
2023-09-17T07:55:35.349Z,17.37
2023-09-17T08:00:42.971Z,17.64
2023-09-17T08:05:50.866Z,17.99
2023-09-17T08:10:58.984Z,18.37
2023-09-17T08:16:07.108Z,18.75
2023-09-17T08:21:15.071Z,19.12
2023-09-17T08:26:23.110Z,19.40
2023-09-17T08:31:30.438Z,19.66
2023-09-17T08:36:43.005Z,19.85
2023-09-17T08:41:51.664Z,20.02
2023-09-17T08:47:00.621Z,20.15
2023-09-17T08:52:12.026Z,20.28
2023-09-17T08:57:24.015Z,20.41
2023-09-17T09:02:35.252Z,20.56
2023-09-17T09:07:43.841Z,20.69
2023-09-17T09:12:52.691Z,20.82
2023-09-17T09:18:00.134Z,20.96
2023-09-17T09:23:08.770Z,21.10
2023-09-17T09:28:16.176Z,21.25
2023-09-17T09:33:25.022Z,21.39
2023-09-17T09:38:35.035Z,21.52
2023-09-17T09:43:45.415Z,21.66
2023-09-17T09:48:53.648Z,21.81
2023-09-17T09:54:01.053Z,21.95
2023-09-17T09:59:09.280Z,22.08
2023-09-17T10:04:16.815Z,22.20
2023-09-17T10:09:25.086Z,22.31
2023-09-17T10:14:37.316Z,22.40
2023-09-17T10:19:48.827Z,22.45
2023-09-17T10:24:57.107Z,22.49
2023-09-17T10:30:06.238Z,22.53
2023-09-17T10:35:15.857Z,22.62
2023-09-17T10:40:23.918Z,22.73
2023-09-17T10:45:36.552Z,22.83
2023-09-17T10:50:45.516Z,22.90
2023-09-17T10:55:59.118Z,22.94
2023-09-17T11:01:08.214Z,22.99
2023-09-17T11:06:25.542Z,23.10
2023-09-17T11:11:36.194Z,23.22
2023-09-17T11:16:44.493Z,23.30
2023-09-17T11:22:09.903Z,23.38
2023-09-17T11:27:22.996Z,23.50
2023-09-17T11:32:31.044Z,23.61
2023-09-17T11:37:38.954Z,23.68
2023-09-17T11:42:47.065Z,23.73
2023-09-17T11:47:54.614Z,23.76
2023-09-17T11:53:08.832Z,23.80
2023-09-17T11:58:21.848Z,23.81
2023-09-17T12:03:30.183Z,23.77
2023-09-17T12:08:37.970Z,23.75
2023-09-17T12:13:46.461Z,23.72
2023-09-17T12:19:03.696Z,23.72
2023-09-17T12:24:30.610Z,23.78
2023-09-17T12:29:38.763Z,23.82
2023-09-17T12:34:46.413Z,23.82
2023-09-17T12:39:55.131Z,23.84
2023-09-17T12:45:02.788Z,23.85
2023-09-17T12:50:12.036Z,23.86
2023-09-17T12:55:20.492Z,23.88
2023-09-17T13:00:27.969Z,23.91
2023-09-17T13:05:35.449Z,23.98
2023-09-17T13:10:43.121Z,24.06
2023-09-17T13:15:51.040Z,24.13
2023-09-17T13:20:58.845Z,24.18
2023-09-17T13:26:06.466Z,24.27
2023-09-17T13:31:14.810Z,24.35
2023-09-17T13:36:24.232Z,24.35
2023-09-17T13:41:33.202Z,24.29
2023-09-17T13:46:49.177Z,24.28
2023-09-17T13:51:57.066Z,24.32
2023-09-17T13:57:04.841Z,24.29
2023-09-17T14:02:14.173Z,24.26
2023-09-17T14:07:22.045Z,24.21
2023-09-17T14:12:29.682Z,24.15
2023-09-17T14:17:37.228Z,24.11
2023-09-17T14:22:44.800Z,24.06
2023-09-17T14:27:53.472Z,24.02
2023-09-17T14:33:02.547Z,24.00
2023-09-17T14:38:10.250Z,24.02
2023-09-17T14:43:17.548Z,24.03
2023-09-17T14:48:27.198Z,24.03
2023-09-17T14:53:35.056Z,24.03
2023-09-17T14:58:42.952Z,24.02
2023-09-17T15:03:50.905Z,24.00
2023-09-17T15:08:59.986Z,23.99
2023-09-17T15:14:07.775Z,23.99
2023-09-17T15:19:15.958Z,23.98
2023-09-17T15:24:23.395Z,23.95
2023-09-17T15:29:31.202Z,23.91
2023-09-17T15:34:42.033Z,23.89
2023-09-17T15:39:49.327Z,23.87
2023-09-17T15:44:57.228Z,23.85
2023-09-17T15:50:05.051Z,23.84
2023-09-17T15:55:14.707Z,23.82
2023-09-17T16:00:22.530Z,23.77
2023-09-17T16:05:30.370Z,23.72
2023-09-17T16:10:38.243Z,23.65
2023-09-17T16:15:45.757Z,23.57
2023-09-17T16:20:53.481Z,23.50
2023-09-17T16:26:01.983Z,23.40
2023-09-17T16:31:09.753Z,23.31
2023-09-17T16:36:18.297Z,23.23
2023-09-17T16:41:25.941Z,23.14
2023-09-17T16:46:34.586Z,23.03
2023-09-17T16:51:48.101Z,22.85
2023-09-17T16:56:56.011Z,22.64
2023-09-17T17:02:03.777Z,22.35
2023-09-17T17:07:11.028Z,22.01
2023-09-17T17:12:18.561Z,21.68
2023-09-17T17:17:26.252Z,21.35
2023-09-17T17:22:45.338Z,21.09
2023-09-17T17:27:53.018Z,20.93
2023-09-17T17:33:00.364Z,20.77
2023-09-17T17:38:08.859Z,20.58
2023-09-17T17:43:16.991Z,20.37
2023-09-17T17:48:24.700Z,20.19
2023-09-17T17:53:37.401Z,20.05
2023-09-17T17:58:45.790Z,19.90
2023-09-17T18:03:53.941Z,19.77
2023-09-17T18:09:02.092Z,19.61
2023-09-17T18:14:09.950Z,19.42
2023-09-17T18:24:11.435Z,19.20
2023-09-17T18:29:22.304Z,19.07
2023-09-17T18:34:30.997Z,18.91
2023-09-17T18:39:39.208Z,18.88
2023-09-17T18:44:47.283Z,18.88
2023-09-17T18:49:55.432Z,18.84
2023-09-17T18:55:03.833Z,18.72
2023-09-17T19:00:14.660Z,18.56
2023-09-17T19:05:22.463Z,18.47
2023-09-17T19:10:29.962Z,18.39
2023-09-17T19:15:39.338Z,18.32
2023-09-17T19:20:48.197Z,18.23
2023-09-17T19:25:58.009Z,18.17
2023-09-17T19:31:06.122Z,18.14
2023-09-17T19:36:14.259Z,18.19
2023-09-17T19:41:24.528Z,18.16
2023-09-17T19:46:33.110Z,18.13
2023-09-17T19:51:40.972Z,18.17
2023-09-17T19:56:49.253Z,18.05
2023-09-17T20:01:57.294Z,17.86
2023-09-17T20:07:05.233Z,17.86
2023-09-17T20:12:12.997Z,17.78
2023-09-17T20:17:20.757Z,17.70
2023-09-17T20:22:31.474Z,17.71
2023-09-17T20:27:40.640Z,17.61
2023-09-17T20:32:48.109Z,17.48
2023-09-17T20:37:56.182Z,17.43
2023-09-17T20:43:03.802Z,17.48
2023-09-17T20:48:11.446Z,17.44
2023-09-17T20:53:19.104Z,17.38
2023-09-17T20:58:26.984Z,17.43
2023-09-17T21:03:35.091Z,17.38
2023-09-17T21:08:42.812Z,17.37
2023-09-17T21:13:50.544Z,17.31
2023-09-17T21:18:58.112Z,17.20
2023-09-17T21:24:06.111Z,17.08
2023-09-17T21:29:14.000Z,17.01
2023-09-17T21:44:07.501Z,16.95
2023-09-17T21:49:16.792Z,16.89
2023-09-17T21:54:24.583Z,16.93
2023-09-17T21:59:31.820Z,16.92
2023-09-17T22:04:38.912Z,16.87
2023-09-17T22:09:46.489Z,16.80
2023-09-17T22:14:54.258Z,16.68
2023-09-17T22:25:31.372Z,16.59
2023-09-17T22:30:38.860Z,16.48
2023-09-17T22:35:49.008Z,16.35
2023-09-17T22:40:56.253Z,16.21
2023-09-17T22:46:07.537Z,16.12
2023-09-17T22:51:14.864Z,16.13
2023-09-17T22:56:22.997Z,16.10
2023-09-17T23:01:31.124Z,15.96
2023-09-17T23:06:38.647Z,15.85
2023-09-17T23:11:46.455Z,15.77
2023-09-17T23:16:54.600Z,15.76
2023-09-17T23:22:07.038Z,15.79
2023-09-17T23:27:14.481Z,15.69
2023-09-17T23:32:22.487Z,15.58
2023-09-17T23:37:30.044Z,15.56
2023-09-17T23:42:37.769Z,15.56
2023-09-17T23:47:45.437Z,15.54
2023-09-17T23:52:53.186Z,15.51
2023-09-17T23:58:01.402Z,15.49
